sensor_id;sensor_type;location;lat;lon;timestamp;P1;durP1;ratioP1;P2;durP2;ratioP2
4754;SDS011;2391;47.212;7.542;2023-07-24T00:01:54;9.20;;;6.17;;
4754;SDS011;2391;47.212;7.542;2023-07-24T00:04:20;9.93;;;5.80;;
4754;SDS011;2391;47.212;7.542;2023-07-24T00:06:45;9.03;;;5.80;;
4754;SDS011;2391;47.212;7.542;2023-07-24T00:09:11;13.40;;;6.10;;
4754;SDS011;2391;47.212;7.542;2023-07-24T00:11:37;10.93;;;5.80;;
4754;SDS011;2391;47.212;7.542;2023-07-24T00:14:02;14.97;;;5.80;;
4754;SDS011;2391;47.212;7.542;2023-07-24T00:16:28;7.43;;;5.43;;
4754;SDS011;2391;47.212;7.542;2023-07-24T00:18:54;8.90;;;6.40;;
4754;SDS011;2391;47.212;7.542;2023-07-24T00:21:20;12.97;;;6.07;;
4754;SDS011;2391;47.212;7.542;2023-07-24T00:23:46;10.77;;;5.90;;
4754;SDS011;2391;47.212;7.542;2023-07-24T00:26:11;7.70;;;5.47;;
4754;SDS011;2391;47.212;7.542;2023-07-24T00:28:37;9.00;;;5.83;;
4754;SDS011;2391;47.212;7.542;2023-07-24T00:31:03;9.73;;;5.70;;
4754;SDS011;2391;47.212;7.542;2023-07-24T00:33:28;12.67;;;6.20;;
4754;SDS011;2391;47.212;7.542;2023-07-24T00:35:55;8.13;;;5.20;;
4754;SDS011;2391;47.212;7.542;2023-07-24T00:38:23;7.90;;;6.00;;
4754;SDS011;2391;47.212;7.542;2023-07-24T00:40:49;9.00;;;5.00;;
4754;SDS011;2391;47.212;7.542;2023-07-24T00:43:15;10.83;;;5.40;;
4754;SDS011;2391;47.212;7.542;2023-07-24T00:45:42;9.10;;;5.50;;
4754;SDS011;2391;47.212;7.542;2023-07-24T00:48:10;9.80;;;6.17;;
4754;SDS011;2391;47.212;7.542;2023-07-24T00:50:36;11.07;;;5.57;;
4754;SDS011;2391;47.212;7.542;2023-07-24T00:53:04;7.40;;;5.13;;
4754;SDS011;2391;47.212;7.542;2023-07-24T00:55:30;11.30;;;6.10;;
4754;SDS011;2391;47.212;7.542;2023-07-24T00:57:58;8.77;;;5.53;;
4754;SDS011;2391;47.212;7.542;2023-07-24T01:00:25;9.30;;;5.13;;
4754;SDS011;2391;47.212;7.542;2023-07-24T01:02:51;12.07;;;5.70;;
4754;SDS011;2391;47.212;7.542;2023-07-24T01:05:17;11.80;;;5.10;;
4754;SDS011;2391;47.212;7.542;2023-07-24T01:07:43;9.93;;;5.43;;
4754;SDS011;2391;47.212;7.542;2023-07-24T01:10:09;9.57;;;5.77;;
4754;SDS011;2391;47.212;7.542;2023-07-24T01:15:16;10.07;;;6.30;;
4754;SDS011;2391;47.212;7.542;2023-07-24T01:17:45;9.80;;;5.77;;
4754;SDS011;2391;47.212;7.542;2023-07-24T01:20:12;10.93;;;6.63;;
4754;SDS011;2391;47.212;7.542;2023-07-24T01:26:01;8.17;;;5.50;;
4754;SDS011;2391;47.212;7.542;2023-07-24T01:28:25;8.97;;;5.70;;
4754;SDS011;2391;47.212;7.542;2023-07-24T01:30:51;8.33;;;6.03;;
4754;SDS011;2391;47.212;7.542;2023-07-24T01:33:17;12.67;;;6.53;;
4754;SDS011;2391;47.212;7.542;2023-07-24T01:35:44;8.13;;;5.63;;
4754;SDS011;2391;47.212;7.542;2023-07-24T01:38:11;9.23;;;5.80;;
4754;SDS011;2391;47.212;7.542;2023-07-24T01:40:41;9.83;;;6.60;;
4754;SDS011;2391;47.212;7.542;2023-07-24T01:43:08;7.43;;;5.60;;
4754;SDS011;2391;47.212;7.542;2023-07-24T01:45:34;9.83;;;6.27;;
4754;SDS011;2391;47.212;7.542;2023-07-24T01:48:03;10.70;;;6.10;;
4754;SDS011;2391;47.212;7.542;2023-07-24T01:50:29;12.00;;;5.77;;
4754;SDS011;2391;47.212;7.542;2023-07-24T01:52:55;8.87;;;6.03;;
4754;SDS011;2391;47.212;7.542;2023-07-24T01:55:21;9.10;;;6.40;;
4754;SDS011;2391;47.212;7.542;2023-07-24T01:57:46;12.77;;;6.43;;
4754;SDS011;2391;47.212;7.542;2023-07-24T02:00:12;9.77;;;5.37;;
4754;SDS011;2391;47.212;7.542;2023-07-24T02:02:38;8.20;;;5.67;;
4754;SDS011;2391;47.212;7.542;2023-07-24T02:05:04;10.27;;;5.60;;
4754;SDS011;2391;47.212;7.542;2023-07-24T02:07:30;9.63;;;6.13;;
4754;SDS011;2391;47.212;7.542;2023-07-24T02:09:56;11.77;;;5.90;;
4754;SDS011;2391;47.212;7.542;2023-07-24T02:12:22;10.50;;;5.07;;
4754;SDS011;2391;47.212;7.542;2023-07-24T02:14:48;7.97;;;5.63;;
4754;SDS011;2391;47.212;7.542;2023-07-24T02:17:15;8.60;;;6.07;;
4754;SDS011;2391;47.212;7.542;2023-07-24T02:19:41;10.27;;;5.97;;
4754;SDS011;2391;47.212;7.542;2023-07-24T02:22:07;10.40;;;6.80;;
4754;SDS011;2391;47.212;7.542;2023-07-24T02:24:33;10.10;;;6.17;;
4754;SDS011;2391;47.212;7.542;2023-07-24T02:26:58;10.33;;;5.60;;
4754;SDS011;2391;47.212;7.542;2023-07-24T02:29:25;8.43;;;5.40;;
4754;SDS011;2391;47.212;7.542;2023-07-24T02:31:52;10.10;;;6.03;;
4754;SDS011;2391;47.212;7.542;2023-07-24T02:34:19;13.07;;;6.30;;
4754;SDS011;2391;47.212;7.542;2023-07-24T02:36:47;11.87;;;5.97;;
4754;SDS011;2391;47.212;7.542;2023-07-24T02:39:12;10.90;;;6.43;;
4754;SDS011;2391;47.212;7.542;2023-07-24T02:41:38;9.37;;;5.80;;
4754;SDS011;2391;47.212;7.542;2023-07-24T02:44:04;13.23;;;6.13;;
4754;SDS011;2391;47.212;7.542;2023-07-24T02:46:29;7.40;;;5.27;;
4754;SDS011;2391;47.212;7.542;2023-07-24T02:48:56;9.60;;;5.77;;
4754;SDS011;2391;47.212;7.542;2023-07-24T02:51:21;8.87;;;5.43;;
4754;SDS011;2391;47.212;7.542;2023-07-24T02:53:47;9.40;;;6.20;;
4754;SDS011;2391;47.212;7.542;2023-07-24T02:56:13;9.93;;;5.30;;
4754;SDS011;2391;47.212;7.542;2023-07-24T02:58:38;8.20;;;5.37;;
4754;SDS011;2391;47.212;7.542;2023-07-24T03:01:04;9.57;;;5.60;;
4754;SDS011;2391;47.212;7.542;2023-07-24T03:03:32;9.63;;;5.87;;
4754;SDS011;2391;47.212;7.542;2023-07-24T03:05:58;9.50;;;5.47;;
4754;SDS011;2391;47.212;7.542;2023-07-24T03:08:24;10.37;;;6.10;;
4754;SDS011;2391;47.212;7.542;2023-07-24T03:10:50;7.27;;;5.27;;
4754;SDS011;2391;47.212;7.542;2023-07-24T03:13:15;9.17;;;5.10;;
4754;SDS011;2391;47.212;7.542;2023-07-24T03:15:41;11.10;;;6.07;;
4754;SDS011;2391;47.212;7.542;2023-07-24T03:18:07;10.23;;;5.57;;
4754;SDS011;2391;47.212;7.542;2023-07-24T03:20:32;8.87;;;4.70;;
4754;SDS011;2391;47.212;7.542;2023-07-24T03:22:58;9.53;;;5.03;;
4754;SDS011;2391;47.212;7.542;2023-07-24T03:25:24;9.30;;;6.37;;
4754;SDS011;2391;47.212;7.542;2023-07-24T03:27:50;8.70;;;5.97;;
4754;SDS011;2391;47.212;7.542;2023-07-24T03:30:15;9.17;;;5.63;;
4754;SDS011;2391;47.212;7.542;2023-07-24T03:32:41;13.23;;;6.50;;
4754;SDS011;2391;47.212;7.542;2023-07-24T03:35:07;12.43;;;6.03;;
4754;SDS011;2391;47.212;7.542;2023-07-24T03:37:36;10.77;;;6.00;;
4754;SDS011;2391;47.212;7.542;2023-07-24T03:40:02;7.83;;;5.40;;
4754;SDS011;2391;47.212;7.542;2023-07-24T03:42:30;7.70;;;5.50;;
4754;SDS011;2391;47.212;7.542;2023-07-24T03:44:56;8.43;;;5.63;;
4754;SDS011;2391;47.212;7.542;2023-07-24T03:47:23;9.57;;;5.77;;
4754;SDS011;2391;47.212;7.542;2023-07-24T03:49:50;9.07;;;5.67;;
4754;SDS011;2391;47.212;7.542;2023-07-24T03:52:16;10.93;;;5.93;;
4754;SDS011;2391;47.212;7.542;2023-07-24T03:54:42;16.17;;;6.20;;
4754;SDS011;2391;47.212;7.542;2023-07-24T03:57:07;12.30;;;7.17;;
4754;SDS011;2391;47.212;7.542;2023-07-24T03:59:33;16.00;;;6.77;;
4754;SDS011;2391;47.212;7.542;2023-07-24T04:01:59;15.17;;;6.77;;
4754;SDS011;2391;47.212;7.542;2023-07-24T04:04:25;18.30;;;7.03;;
4754;SDS011;2391;47.212;7.542;2023-07-24T04:06:51;12.80;;;7.50;;
4754;SDS011;2391;47.212;7.542;2023-07-24T04:09:16;12.90;;;7.80;;
4754;SDS011;2391;47.212;7.542;2023-07-24T04:11:42;13.50;;;7.33;;
4754;SDS011;2391;47.212;7.542;2023-07-24T04:14:09;11.60;;;6.33;;
4754;SDS011;2391;47.212;7.542;2023-07-24T04:16:35;15.33;;;7.70;;
4754;SDS011;2391;47.212;7.542;2023-07-24T04:19:00;9.70;;;6.90;;
4754;SDS011;2391;47.212;7.542;2023-07-24T04:21:26;11.47;;;5.63;;
4754;SDS011;2391;47.212;7.542;2023-07-24T04:23:52;10.20;;;5.93;;
4754;SDS011;2391;47.212;7.542;2023-07-24T04:26:18;11.03;;;6.60;;
4754;SDS011;2391;47.212;7.542;2023-07-24T04:28:43;9.47;;;5.40;;
4754;SDS011;2391;47.212;7.542;2023-07-24T04:31:09;13.07;;;6.20;;
4754;SDS011;2391;47.212;7.542;2023-07-24T04:33:35;9.27;;;5.10;;
4754;SDS011;2391;47.212;7.542;2023-07-24T04:36:00;10.57;;;6.03;;
4754;SDS011;2391;47.212;7.542;2023-07-24T04:38:26;9.93;;;5.33;;
4754;SDS011;2391;47.212;7.542;2023-07-24T04:40:52;6.40;;;4.23;;
4754;SDS011;2391;47.212;7.542;2023-07-24T04:43:18;12.70;;;5.60;;
4754;SDS011;2391;47.212;7.542;2023-07-24T04:45:43;7.10;;;4.87;;
4754;SDS011;2391;47.212;7.542;2023-07-24T04:48:09;12.47;;;6.10;;
4754;SDS011;2391;47.212;7.542;2023-07-24T04:50:35;8.73;;;4.97;;
4754;SDS011;2391;47.212;7.542;2023-07-24T04:53:01;7.30;;;5.13;;
4754;SDS011;2391;47.212;7.542;2023-07-24T04:55:26;10.23;;;5.40;;
4754;SDS011;2391;47.212;7.542;2023-07-24T04:57:52;9.00;;;5.90;;
4754;SDS011;2391;47.212;7.542;2023-07-24T05:00:18;8.30;;;5.20;;
4754;SDS011;2391;47.212;7.542;2023-07-24T05:02:47;8.63;;;6.00;;
4754;SDS011;2391;47.212;7.542;2023-07-24T05:05:12;12.03;;;5.53;;
4754;SDS011;2391;47.212;7.542;2023-07-24T05:07:38;9.97;;;5.30;;
4754;SDS011;2391;47.212;7.542;2023-07-24T05:10:04;7.53;;;4.40;;
4754;SDS011;2391;47.212;7.542;2023-07-24T05:12:30;7.20;;;5.20;;
4754;SDS011;2391;47.212;7.542;2023-07-24T05:14:56;7.00;;;4.57;;
4754;SDS011;2391;47.212;7.542;2023-07-24T05:17:22;11.03;;;5.80;;
4754;SDS011;2391;47.212;7.542;2023-07-24T05:19:47;8.60;;;5.20;;
4754;SDS011;2391;47.212;7.542;2023-07-24T05:22:13;10.10;;;4.87;;
4754;SDS011;2391;47.212;7.542;2023-07-24T05:24:39;7.43;;;4.67;;
4754;SDS011;2391;47.212;7.542;2023-07-24T05:27:05;8.87;;;5.20;;
4754;SDS011;2391;47.212;7.542;2023-07-24T05:29:31;7.40;;;5.07;;
4754;SDS011;2391;47.212;7.542;2023-07-24T05:31:57;7.27;;;5.40;;
4754;SDS011;2391;47.212;7.542;2023-07-24T05:34:24;9.43;;;5.40;;
4754;SDS011;2391;47.212;7.542;2023-07-24T05:36:50;8.27;;;5.17;;
4754;SDS011;2391;47.212;7.542;2023-07-24T05:39:16;9.20;;;5.10;;
4754;SDS011;2391;47.212;7.542;2023-07-24T05:41:41;9.00;;;4.97;;
4754;SDS011;2391;47.212;7.542;2023-07-24T05:44:07;7.90;;;4.47;;
4754;SDS011;2391;47.212;7.542;2023-07-24T05:46:33;10.57;;;5.47;;
4754;SDS011;2391;47.212;7.542;2023-07-24T05:48:59;10.90;;;5.27;;
4754;SDS011;2391;47.212;7.542;2023-07-24T05:51:26;10.47;;;5.47;;
4754;SDS011;2391;47.212;7.542;2023-07-24T05:53:53;6.43;;;4.70;;
4754;SDS011;2391;47.212;7.542;2023-07-24T05:56:18;11.13;;;5.63;;
4754;SDS011;2391;47.212;7.542;2023-07-24T05:58:44;8.00;;;4.70;;
4754;SDS011;2391;47.212;7.542;2023-07-24T06:01:10;10.13;;;5.70;;
4754;SDS011;2391;47.212;7.542;2023-07-24T06:03:36;12.03;;;5.57;;
4754;SDS011;2391;47.212;7.542;2023-07-24T06:06:04;7.90;;;5.33;;
4754;SDS011;2391;47.212;7.542;2023-07-24T06:08:30;8.50;;;5.67;;
4754;SDS011;2391;47.212;7.542;2023-07-24T06:10:55;7.93;;;5.00;;
4754;SDS011;2391;47.212;7.542;2023-07-24T06:13:21;8.73;;;5.33;;
4754;SDS011;2391;47.212;7.542;2023-07-24T06:15:47;9.00;;;5.10;;
4754;SDS011;2391;47.212;7.542;2023-07-24T06:18:14;7.23;;;5.03;;
4754;SDS011;2391;47.212;7.542;2023-07-24T06:20:40;13.10;;;6.10;;
4754;SDS011;2391;47.212;7.542;2023-07-24T06:23:05;8.83;;;5.00;;
4754;SDS011;2391;47.212;7.542;2023-07-24T06:25:31;8.10;;;4.50;;
4754;SDS011;2391;47.212;7.542;2023-07-24T06:27:57;5.67;;;3.70;;
4754;SDS011;2391;47.212;7.542;2023-07-24T06:30:24;5.60;;;3.87;;
4754;SDS011;2391;47.212;7.542;2023-07-24T06:32:50;8.70;;;4.80;;
4754;SDS011;2391;47.212;7.542;2023-07-24T06:35:16;5.00;;;3.60;;
4754;SDS011;2391;47.212;7.542;2023-07-24T06:37:42;8.00;;;4.10;;
4754;SDS011;2391;47.212;7.542;2023-07-24T06:40:08;8.10;;;4.40;;
4754;SDS011;2391;47.212;7.542;2023-07-24T06:42:34;7.70;;;4.07;;
4754;SDS011;2391;47.212;7.542;2023-07-24T06:45:00;6.53;;;4.30;;
4754;SDS011;2391;47.212;7.542;2023-07-24T06:47:26;11.20;;;4.50;;
4754;SDS011;2391;47.212;7.542;2023-07-24T06:49:52;9.30;;;4.10;;
4754;SDS011;2391;47.212;7.542;2023-07-24T06:52:17;6.20;;;3.93;;
4754;SDS011;2391;47.212;7.542;2023-07-24T06:54:43;7.13;;;4.17;;
4754;SDS011;2391;47.212;7.542;2023-07-24T06:57:09;6.83;;;4.30;;
4754;SDS011;2391;47.212;7.542;2023-07-24T06:59:34;6.47;;;4.37;;
4754;SDS011;2391;47.212;7.542;2023-07-24T07:02:00;5.20;;;4.00;;
4754;SDS011;2391;47.212;7.542;2023-07-24T07:04:26;17.43;;;4.20;;
4754;SDS011;2391;47.212;7.542;2023-07-24T07:06:52;6.10;;;4.47;;
4754;SDS011;2391;47.212;7.542;2023-07-24T07:09:18;9.37;;;4.57;;
4754;SDS011;2391;47.212;7.542;2023-07-24T07:11:43;6.00;;;3.93;;
4754;SDS011;2391;47.212;7.542;2023-07-24T07:14:10;7.27;;;4.50;;
4754;SDS011;2391;47.212;7.542;2023-07-24T07:16:36;10.03;;;4.67;;
4754;SDS011;2391;47.212;7.542;2023-07-24T07:19:01;8.90;;;4.20;;
4754;SDS011;2391;47.212;7.542;2023-07-24T07:21:27;5.53;;;4.30;;
4754;SDS011;2391;47.212;7.542;2023-07-24T07:23:53;7.43;;;4.20;;
4754;SDS011;2391;47.212;7.542;2023-07-24T07:26:20;6.73;;;4.40;;
4754;SDS011;2391;47.212;7.542;2023-07-24T07:28:46;6.30;;;3.60;;
4754;SDS011;2391;47.212;7.542;2023-07-24T07:31:11;6.00;;;4.07;;
4754;SDS011;2391;47.212;7.542;2023-07-24T07:33:37;5.00;;;4.00;;
4754;SDS011;2391;47.212;7.542;2023-07-24T07:36:04;9.80;;;4.43;;
4754;SDS011;2391;47.212;7.542;2023-07-24T07:38:31;5.23;;;4.17;;
4754;SDS011;2391;47.212;7.542;2023-07-24T07:40:57;14.20;;;4.40;;
4754;SDS011;2391;47.212;7.542;2023-07-24T07:43:23;4.40;;;3.60;;
4754;SDS011;2391;47.212;7.542;2023-07-24T07:45:49;8.47;;;4.70;;
4754;SDS011;2391;47.212;7.542;2023-07-24T07:48:14;5.67;;;3.57;;
4754;SDS011;2391;47.212;7.542;2023-07-24T07:50:40;4.03;;;3.63;;
4754;SDS011;2391;47.212;7.542;2023-07-24T07:53:06;6.30;;;3.67;;
4754;SDS011;2391;47.212;7.542;2023-07-24T07:55:31;5.47;;;4.30;;
4754;SDS011;2391;47.212;7.542;2023-07-24T07:57:57;8.90;;;3.70;;
4754;SDS011;2391;47.212;7.542;2023-07-24T08:00:23;9.07;;;3.97;;
4754;SDS011;2391;47.212;7.542;2023-07-24T08:02:49;8.17;;;4.30;;
4754;SDS011;2391;47.212;7.542;2023-07-24T08:05:15;6.47;;;3.97;;
4754;SDS011;2391;47.212;7.542;2023-07-24T08:07:41;5.67;;;4.10;;
4754;SDS011;2391;47.212;7.542;2023-07-24T08:10:06;6.93;;;3.97;;
4754;SDS011;2391;47.212;7.542;2023-07-24T08:12:33;7.17;;;3.97;;
4754;SDS011;2391;47.212;7.542;2023-07-24T08:14:59;5.37;;;4.07;;
4754;SDS011;2391;47.212;7.542;2023-07-24T08:17:25;4.57;;;4.07;;
4754;SDS011;2391;47.212;7.542;2023-07-24T08:19:50;4.57;;;3.90;;
4754;SDS011;2391;47.212;7.542;2023-07-24T08:22:16;7.60;;;4.37;;
4754;SDS011;2391;47.212;7.542;2023-07-24T08:24:44;6.50;;;4.00;;
4754;SDS011;2391;47.212;7.542;2023-07-24T08:27:10;9.00;;;4.67;;
4754;SDS011;2391;47.212;7.542;2023-07-24T08:29:35;6.43;;;3.60;;
4754;SDS011;2391;47.212;7.542;2023-07-24T08:32:03;4.70;;;3.90;;
4754;SDS011;2391;47.212;7.542;2023-07-24T08:34:30;7.23;;;3.80;;
4754;SDS011;2391;47.212;7.542;2023-07-24T08:36:55;5.10;;;3.80;;
4754;SDS011;2391;47.212;7.542;2023-07-24T08:39:21;5.47;;;3.60;;
4754;SDS011;2391;47.212;7.542;2023-07-24T08:41:47;6.83;;;3.97;;
4754;SDS011;2391;47.212;7.542;2023-07-24T08:44:13;6.20;;;4.60;;
4754;SDS011;2391;47.212;7.542;2023-07-24T08:46:39;7.23;;;4.10;;
4754;SDS011;2391;47.212;7.542;2023-07-24T08:49:10;10.83;;;4.60;;
4754;SDS011;2391;47.212;7.542;2023-07-24T08:51:36;7.73;;;3.97;;
4754;SDS011;2391;47.212;7.542;2023-07-24T08:54:03;6.33;;;4.57;;
4754;SDS011;2391;47.212;7.542;2023-07-24T08:56:30;7.97;;;4.20;;
4754;SDS011;2391;47.212;7.542;2023-07-24T08:58:55;6.90;;;4.70;;
4754;SDS011;2391;47.212;7.542;2023-07-24T09:01:22;8.80;;;4.83;;
4754;SDS011;2391;47.212;7.542;2023-07-24T09:03:47;5.83;;;4.10;;
4754;SDS011;2391;47.212;7.542;2023-07-24T09:06:13;8.50;;;3.70;;
4754;SDS011;2391;47.212;7.542;2023-07-24T09:08:39;8.07;;;4.80;;
4754;SDS011;2391;47.212;7.542;2023-07-24T09:11:08;4.87;;;4.00;;
4754;SDS011;2391;47.212;7.542;2023-07-24T09:13:35;6.87;;;3.70;;
4754;SDS011;2391;47.212;7.542;2023-07-24T09:16:03;6.90;;;4.50;;
4754;SDS011;2391;47.212;7.542;2023-07-24T09:18:39;5.63;;;3.60;;
4754;SDS011;2391;47.212;7.542;2023-07-24T09:21:06;6.70;;;4.33;;
4754;SDS011;2391;47.212;7.542;2023-07-24T09:23:33;5.37;;;4.10;;
4754;SDS011;2391;47.212;7.542;2023-07-24T09:25:58;6.53;;;4.50;;
4754;SDS011;2391;47.212;7.542;2023-07-24T09:28:24;6.10;;;3.97;;
4754;SDS011;2391;47.212;7.542;2023-07-24T09:30:54;6.07;;;4.43;;
4754;SDS011;2391;47.212;7.542;2023-07-24T09:33:22;7.80;;;3.83;;
4754;SDS011;2391;47.212;7.542;2023-07-24T09:36:00;8.83;;;4.17;;
4754;SDS011;2391;47.212;7.542;2023-07-24T09:38:26;7.77;;;3.87;;
4754;SDS011;2391;47.212;7.542;2023-07-24T09:40:52;7.63;;;3.53;;
4754;SDS011;2391;47.212;7.542;2023-07-24T09:43:25;6.90;;;4.20;;
4754;SDS011;2391;47.212;7.542;2023-07-24T09:45:52;6.87;;;4.70;;
4754;SDS011;2391;47.212;7.542;2023-07-24T09:48:20;6.13;;;4.07;;
4754;SDS011;2391;47.212;7.542;2023-07-24T09:50:54;7.40;;;3.70;;
4754;SDS011;2391;47.212;7.542;2023-07-24T09:56:02;6.50;;;3.77;;
4754;SDS011;2391;47.212;7.542;2023-07-24T09:58:30;4.20;;;3.80;;
4754;SDS011;2391;47.212;7.542;2023-07-24T10:00:58;5.70;;;3.57;;
4754;SDS011;2391;47.212;7.542;2023-07-24T10:03:25;8.33;;;4.23;;
4754;SDS011;2391;47.212;7.542;2023-07-24T10:05:52;9.00;;;4.60;;
4754;SDS011;2391;47.212;7.542;2023-07-24T10:08:19;6.30;;;4.40;;
4754;SDS011;2391;47.212;7.542;2023-07-24T10:10:45;11.40;;;5.57;;
4754;SDS011;2391;47.212;7.542;2023-07-24T10:13:12;13.10;;;5.83;;
4754;SDS011;2391;47.212;7.542;2023-07-24T10:15:40;6.90;;;3.07;;
4754;SDS011;2391;47.212;7.542;2023-07-24T10:18:08;5.70;;;2.50;;
4754;SDS011;2391;47.212;7.542;2023-07-24T10:20:39;2.13;;;1.93;;
4754;SDS011;2391;47.212;7.542;2023-07-24T10:23:04;3.10;;;1.97;;
4754;SDS011;2391;47.212;7.542;2023-07-24T10:25:31;2.07;;;1.20;;
4754;SDS011;2391;47.212;7.542;2023-07-24T10:28:02;1.40;;;1.30;;
4754;SDS011;2391;47.212;7.542;2023-07-24T10:30:35;2.87;;;1.47;;
4754;SDS011;2391;47.212;7.542;2023-07-24T10:33:07;3.23;;;1.53;;
4754;SDS011;2391;47.212;7.542;2023-07-24T10:35:36;2.03;;;1.83;;
4754;SDS011;2391;47.212;7.542;2023-07-24T10:38:04;2.90;;;1.63;;
4754;SDS011;2391;47.212;7.542;2023-07-24T10:40:30;2.90;;;1.63;;
4754;SDS011;2391;47.212;7.542;2023-07-24T10:45:49;1.67;;;1.20;;
4754;SDS011;2391;47.212;7.542;2023-07-24T10:48:18;1.90;;;0.90;;
4754;SDS011;2391;47.212;7.542;2023-07-24T10:50:46;1.10;;;1.00;;
4754;SDS011;2391;47.212;7.542;2023-07-24T10:53:14;1.10;;;1.10;;
4754;SDS011;2391;47.212;7.542;2023-07-24T10:55:42;0.90;;;0.77;;
4754;SDS011;2391;47.212;7.542;2023-07-24T10:58:09;2.80;;;0.93;;
4754;SDS011;2391;47.212;7.542;2023-07-24T11:00:35;1.50;;;1.03;;
4754;SDS011;2391;47.212;7.542;2023-07-24T11:03:01;1.13;;;1.03;;
4754;SDS011;2391;47.212;7.542;2023-07-24T11:05:26;1.53;;;1.17;;
4754;SDS011;2391;47.212;7.542;2023-07-24T11:07:52;4.63;;;1.60;;
4754;SDS011;2391;47.212;7.542;2023-07-24T11:10:19;1.30;;;1.20;;
4754;SDS011;2391;47.212;7.542;2023-07-24T11:12:46;1.37;;;1.27;;
4754;SDS011;2391;47.212;7.542;2023-07-24T11:15:12;1.57;;;1.47;;
4754;SDS011;2391;47.212;7.542;2023-07-24T11:17:39;1.57;;;1.47;;
4754;SDS011;2391;47.212;7.542;2023-07-24T11:20:10;2.77;;;1.67;;
4754;SDS011;2391;47.212;7.542;2023-07-24T11:22:42;1.73;;;1.60;;
4754;SDS011;2391;47.212;7.542;2023-07-24T11:25:06;2.30;;;1.80;;
4754;SDS011;2391;47.212;7.542;2023-07-24T11:27:37;2.20;;;1.37;;
4754;SDS011;2391;47.212;7.542;2023-07-24T11:30:07;1.70;;;1.60;;
4754;SDS011;2391;47.212;7.542;2023-07-24T11:32:33;3.57;;;1.50;;
4754;SDS011;2391;47.212;7.542;2023-07-24T11:34:59;4.50;;;1.67;;
4754;SDS011;2391;47.212;7.542;2023-07-24T11:37:26;2.13;;;1.47;;
4754;SDS011;2391;47.212;7.542;2023-07-24T11:39:55;1.50;;;1.30;;
4754;SDS011;2391;47.212;7.542;2023-07-24T11:42:26;2.37;;;1.80;;
4754;SDS011;2391;47.212;7.542;2023-07-24T11:44:53;2.37;;;1.90;;
4754;SDS011;2391;47.212;7.542;2023-07-24T11:47:19;6.93;;;1.70;;
4754;SDS011;2391;47.212;7.542;2023-07-24T11:49:55;3.10;;;1.53;;
4754;SDS011;2391;47.212;7.542;2023-07-24T11:52:23;2.40;;;2.07;;
4754;SDS011;2391;47.212;7.542;2023-07-24T11:54:55;1.70;;;1.60;;
4754;SDS011;2391;47.212;7.542;2023-07-24T11:57:24;3.60;;;2.20;;
4754;SDS011;2391;47.212;7.542;2023-07-24T11:59:50;1.70;;;1.60;;
4754;SDS011;2391;47.212;7.542;2023-07-24T12:02:16;1.73;;;1.50;;
4754;SDS011;2391;47.212;7.542;2023-07-24T12:04:42;1.83;;;1.73;;
4754;SDS011;2391;47.212;7.542;2023-07-24T12:07:08;1.50;;;1.40;;
4754;SDS011;2391;47.212;7.542;2023-07-24T12:09:34;3.20;;;1.80;;
4754;SDS011;2391;47.212;7.542;2023-07-24T12:12:00;1.53;;;1.40;;
4754;SDS011;2391;47.212;7.542;2023-07-24T12:14:28;1.97;;;1.60;;
4754;SDS011;2391;47.212;7.542;2023-07-24T12:17:03;2.90;;;1.50;;
4754;SDS011;2391;47.212;7.542;2023-07-24T12:19:31;1.73;;;1.57;;
4754;SDS011;2391;47.212;7.542;2023-07-24T12:21:57;1.50;;;1.40;;
4754;SDS011;2391;47.212;7.542;2023-07-24T12:24:22;1.97;;;1.80;;
4754;SDS011;2391;47.212;7.542;2023-07-24T12:26:48;2.70;;;1.70;;
4754;SDS011;2391;47.212;7.542;2023-07-24T12:29:14;1.57;;;1.47;;
4754;SDS011;2391;47.212;7.542;2023-07-24T12:31:40;2.77;;;1.80;;
4754;SDS011;2391;47.212;7.542;2023-07-24T12:34:06;1.90;;;1.77;;
4754;SDS011;2391;47.212;7.542;2023-07-24T12:36:32;2.53;;;1.77;;
4754;SDS011;2391;47.212;7.542;2023-07-24T12:38:57;3.87;;;1.90;;
4754;SDS011;2391;47.212;7.542;2023-07-24T12:41:23;3.53;;;2.20;;
4754;SDS011;2391;47.212;7.542;2023-07-24T12:43:49;2.30;;;2.10;;
4754;SDS011;2391;47.212;7.542;2023-07-24T12:46:14;8.60;;;1.97;;
4754;SDS011;2391;47.212;7.542;2023-07-24T12:48:40;2.40;;;2.20;;
4754;SDS011;2391;47.212;7.542;2023-07-24T12:51:06;3.77;;;2.27;;
4754;SDS011;2391;47.212;7.542;2023-07-24T12:53:31;4.93;;;1.80;;
4754;SDS011;2391;47.212;7.542;2023-07-24T12:55:57;6.57;;;2.80;;
4754;SDS011;2391;47.212;7.542;2023-07-24T12:58:23;3.27;;;2.50;;
4754;SDS011;2391;47.212;7.542;2023-07-24T13:00:48;3.53;;;2.30;;
4754;SDS011;2391;47.212;7.542;2023-07-24T13:03:14;4.97;;;2.53;;
4754;SDS011;2391;47.212;7.542;2023-07-24T13:05:40;5.23;;;2.53;;
4754;SDS011;2391;47.212;7.542;2023-07-24T13:08:05;4.13;;;2.27;;
4754;SDS011;2391;47.212;7.542;2023-07-24T13:10:31;2.10;;;2.00;;
4754;SDS011;2391;47.212;7.542;2023-07-24T13:12:57;2.37;;;2.17;;
4754;SDS011;2391;47.212;7.542;2023-07-24T13:15:23;3.97;;;2.40;;
4754;SDS011;2391;47.212;7.542;2023-07-24T13:17:48;4.97;;;2.73;;
4754;SDS011;2391;47.212;7.542;2023-07-24T13:20:14;3.67;;;2.87;;
4754;SDS011;2391;47.212;7.542;2023-07-24T13:22:40;2.80;;;2.30;;
4754;SDS011;2391;47.212;7.542;2023-07-24T13:25:07;3.17;;;2.30;;
4754;SDS011;2391;47.212;7.542;2023-07-24T13:27:33;3.20;;;2.63;;
4754;SDS011;2391;47.212;7.542;2023-07-24T13:29:59;5.80;;;2.40;;
4754;SDS011;2391;47.212;7.542;2023-07-24T13:32:25;3.57;;;2.40;;
4754;SDS011;2391;47.212;7.542;2023-07-24T13:34:50;4.77;;;2.80;;
4754;SDS011;2391;47.212;7.542;2023-07-24T13:37:16;4.10;;;3.20;;
4754;SDS011;2391;47.212;7.542;2023-07-24T13:39:42;3.10;;;2.80;;
4754;SDS011;2391;47.212;7.542;2023-07-24T13:42:07;2.60;;;2.40;;
4754;SDS011;2391;47.212;7.542;2023-07-24T13:44:33;3.80;;;2.73;;
4754;SDS011;2391;47.212;7.542;2023-07-24T13:46:59;4.83;;;2.17;;
4754;SDS011;2391;47.212;7.542;2023-07-24T13:49:25;4.00;;;2.80;;
4754;SDS011;2391;47.212;7.542;2023-07-24T13:51:50;4.17;;;2.80;;
4754;SDS011;2391;47.212;7.542;2023-07-24T13:54:16;4.23;;;2.63;;
4754;SDS011;2391;47.212;7.542;2023-07-24T13:56:42;3.43;;;3.13;;
4754;SDS011;2391;47.212;7.542;2023-07-24T13:59:07;5.50;;;3.07;;
4754;SDS011;2391;47.212;7.542;2023-07-24T14:01:33;3.67;;;3.13;;
4754;SDS011;2391;47.212;7.542;2023-07-24T14:03:59;5.90;;;3.17;;
4754;SDS011;2391;47.212;7.542;2023-07-24T14:06:26;6.20;;;3.37;;
4754;SDS011;2391;47.212;7.542;2023-07-24T14:08:51;8.80;;;3.40;;
4754;SDS011;2391;47.212;7.542;2023-07-24T14:11:17;4.87;;;3.63;;
4754;SDS011;2391;47.212;7.542;2023-07-24T14:13:43;4.57;;;3.37;;
4754;SDS011;2391;47.212;7.542;2023-07-24T14:16:10;6.10;;;3.43;;
4754;SDS011;2391;47.212;7.542;2023-07-24T14:18:36;6.07;;;3.50;;
4754;SDS011;2391;47.212;7.542;2023-07-24T14:21:03;4.97;;;3.33;;
4754;SDS011;2391;47.212;7.542;2023-07-24T14:23:28;7.97;;;4.10;;
4754;SDS011;2391;47.212;7.542;2023-07-24T14:25:54;5.30;;;3.50;;
4754;SDS011;2391;47.212;7.542;2023-07-24T14:28:20;6.43;;;3.40;;
4754;SDS011;2391;47.212;7.542;2023-07-24T14:30:46;4.83;;;2.73;;
4754;SDS011;2391;47.212;7.542;2023-07-24T14:33:12;4.67;;;2.63;;
4754;SDS011;2391;47.212;7.542;2023-07-24T14:35:38;1.83;;;1.50;;
4754;SDS011;2391;47.212;7.542;2023-07-24T14:38:04;1.47;;;1.37;;
4754;SDS011;2391;47.212;7.542;2023-07-24T14:40:29;1.57;;;1.30;;
4754;SDS011;2391;47.212;7.542;2023-07-24T14:42:55;1.30;;;1.20;;
4754;SDS011;2391;47.212;7.542;2023-07-24T14:45:21;2.90;;;1.20;;
4754;SDS011;2391;47.212;7.542;2023-07-24T14:47:47;2.27;;;1.63;;
4754;SDS011;2391;47.212;7.542;2023-07-24T14:50:14;1.70;;;1.53;;
4754;SDS011;2391;47.212;7.542;2023-07-24T14:52:40;3.57;;;1.60;;
4754;SDS011;2391;47.212;7.542;2023-07-24T14:55:06;1.83;;;1.73;;
4754;SDS011;2391;47.212;7.542;2023-07-24T14:57:32;1.87;;;1.70;;
4754;SDS011;2391;47.212;7.542;2023-07-24T14:59:57;2.00;;;1.80;;
4754;SDS011;2391;47.212;7.542;2023-07-24T15:02:23;2.10;;;1.90;;
4754;SDS011;2391;47.212;7.542;2023-07-24T15:04:49;2.00;;;1.90;;
4754;SDS011;2391;47.212;7.542;2023-07-24T15:07:15;3.63;;;2.30;;
4754;SDS011;2391;47.212;7.542;2023-07-24T15:09:41;2.07;;;1.90;;
4754;SDS011;2391;47.212;7.542;2023-07-24T15:12:07;2.63;;;2.37;;
4754;SDS011;2391;47.212;7.542;2023-07-24T15:14:33;3.63;;;2.47;;
4754;SDS011;2391;47.212;7.542;2023-07-24T15:16:59;2.40;;;2.20;;
4754;SDS011;2391;47.212;7.542;2023-07-24T15:19:25;3.50;;;2.70;;